createdAt,value
2019-05-13T00:01:54.059Z,91.20
2019-05-13T00:04:21.589Z,91.00
2019-05-13T00:06:54.044Z,91.30
2019-05-13T00:09:18.234Z,91.60
2019-05-13T00:11:45.597Z,92.20
2019-05-13T00:14:13.409Z,92.90
2019-05-13T00:16:40.967Z,93.00
2019-05-13T00:19:08.358Z,92.80
2019-05-13T00:21:35.683Z,92.50
2019-05-13T00:24:04.119Z,93.10
2019-05-13T00:26:33.823Z,92.90
2019-05-13T00:29:00.861Z,93.50
2019-05-13T00:31:28.148Z,93.30
2019-05-13T00:33:55.554Z,93.50
2019-05-13T00:36:24.297Z,93.30
2019-05-13T00:38:53.440Z,92.90
2019-05-13T00:41:20.918Z,92.50
2019-05-13T00:43:48.200Z,92.30
2019-05-13T00:46:15.577Z,92.40
2019-05-13T00:48:43.999Z,93.10
2019-05-13T00:51:13.959Z,93.80
2019-05-13T00:53:40.725Z,93.90
2019-05-13T00:56:08.113Z,94.20
2019-05-13T00:58:35.455Z,94.00
2019-05-13T01:01:03.750Z,93.60
2019-05-13T01:03:33.618Z,93.80
2019-05-13T01:06:00.460Z,94.00
2019-05-13T01:08:27.796Z,94.20
2019-05-13T01:10:55.113Z,94.20
2019-05-13T01:13:23.763Z,93.10
2019-05-13T01:15:51.257Z,93.30
2019-05-13T01:18:18.716Z,93.20
2019-05-13T01:20:45.985Z,93.60
2019-05-13T01:23:14.166Z,93.80
2019-05-13T01:25:44.235Z,93.90
2019-05-13T01:28:13.383Z,94.40
2019-05-13T01:30:40.228Z,94.80
2019-05-13T01:33:07.661Z,93.60
2019-05-13T01:35:34.988Z,93.20
2019-05-13T01:38:04.552Z,93.70
2019-05-13T01:40:34.482Z,93.60
2019-05-13T01:43:03.910Z,93.50
2019-05-13T01:45:33.809Z,93.20
2019-05-13T01:48:00.672Z,94.40
2019-05-13T01:50:27.980Z,95.20
2019-05-13T01:52:55.293Z,95.50
2019-05-13T01:55:24.424Z,95.70
2019-05-13T01:57:53.300Z,95.70
2019-05-13T02:00:24.187Z,94.80
2019-05-13T02:02:51.684Z,94.90
2019-05-13T02:05:19.022Z,95.00
2019-05-13T02:07:56.872Z,94.80
2019-05-13T02:10:17.877Z,94.50
2019-05-13T02:12:45.176Z,94.80
2019-05-13T02:15:14.547Z,94.90
2019-05-13T02:17:44.599Z,95.20
2019-05-13T02:20:14.495Z,94.70
2019-05-13T02:22:41.280Z,94.60
2019-05-13T02:25:08.826Z,94.50
2019-05-13T02:27:36.169Z,93.90
2019-05-13T02:30:05.521Z,93.70
2019-05-13T02:32:33.159Z,94.30
2019-05-13T02:35:02.785Z,93.70
2019-05-13T02:37:33.912Z,94.00
2019-05-13T02:40:03.134Z,95.00
2019-05-13T02:42:28.243Z,95.20
2019-05-13T02:44:55.541Z,95.50
2019-05-13T02:47:22.940Z,95.90
2019-05-13T02:49:53.148Z,95.80
2019-05-13T02:52:22.242Z,95.30
2019-05-13T02:54:48.779Z,95.00
2019-05-13T02:57:16.106Z,95.00
2019-05-13T02:59:43.850Z,94.50
2019-05-13T03:02:12.521Z,94.80
2019-05-13T03:04:43.107Z,94.50
2019-05-13T03:07:11.827Z,94.90
2019-05-13T03:09:42.050Z,94.70
2019-05-13T03:12:07.865Z,95.20
2019-05-13T03:14:35.162Z,94.90
2019-05-13T03:17:13.034Z,95.00
2019-05-13T03:19:42.582Z,95.00
2019-05-13T03:22:09.149Z,95.30
2019-05-13T03:24:36.426Z,95.30
2019-05-13T03:27:03.733Z,94.90
2019-05-13T03:29:33.072Z,94.90
2019-05-13T03:32:05.524Z,94.90
2019-05-13T03:34:35.550Z,95.40
2019-05-13T03:36:59.448Z,95.30
2019-05-13T03:39:33.145Z,95.40
2019-05-13T03:42:03.023Z,95.10
2019-05-13T03:44:32.536Z,95.10
2019-05-13T03:47:03.500Z,95.40
2019-05-13T03:49:34.776Z,95.00
2019-05-13T03:52:03.233Z,95.10
2019-05-13T03:54:32.755Z,95.10
2019-05-13T03:57:03.575Z,96.00
2019-05-13T03:59:32.879Z,95.70
2019-05-13T04:02:02.282Z,95.50
2019-05-13T04:04:28.225Z,96.00
2019-05-13T04:06:55.561Z,96.40
2019-05-13T04:09:30.988Z,96.50
2019-05-13T04:11:52.744Z,96.30
2019-05-13T04:14:22.886Z,96.30
2019-05-13T04:16:53.168Z,96.00
2019-05-13T04:19:23.273Z,96.00
2019-05-13T04:21:52.889Z,96.00
2019-05-13T04:24:22.977Z,96.00
2019-05-13T04:26:49.342Z,96.00
2019-05-13T04:29:16.658Z,96.30
2019-05-13T04:31:43.963Z,96.30
2019-05-13T04:34:12.352Z,96.60
2019-05-13T04:36:43.046Z,96.90
2019-05-13T04:39:12.705Z,96.80
2019-05-13T04:41:42.228Z,96.50
2019-05-13T04:44:08.274Z,97.00
2019-05-13T04:46:35.669Z,96.90
2019-05-13T04:49:03.065Z,96.60
2019-05-13T04:51:32.833Z,96.40
2019-05-13T04:54:02.853Z,96.40
2019-05-13T04:56:32.728Z,96.50
2019-05-13T04:59:02.766Z,96.00
2019-05-13T05:02:13.299Z,96.00
2019-05-13T05:04:57.737Z,95.50
2019-05-13T05:08:03.168Z,95.00
2019-05-13T05:11:07.773Z,94.70
2019-05-13T05:14:22.477Z,93.80
2019-05-13T05:17:37.698Z,93.50
2019-05-13T05:20:14.214Z,92.00
2019-05-13T05:23:12.967Z,91.70
2019-05-13T05:26:15.396Z,92.30
2019-05-13T05:29:15.977Z,92.00
2019-05-13T05:32:18.617Z,91.40
2019-05-13T05:35:39.112Z,90.80
2019-05-13T05:38:28.345Z,89.60
2019-05-13T05:40:57.866Z,89.60
2019-05-13T05:43:27.521Z,89.40
2019-05-13T05:45:55.117Z,88.50
2019-05-13T05:48:24.550Z,86.00
2019-05-13T05:50:53.642Z,85.20
2019-05-13T05:53:23.533Z,82.30
2019-05-13T05:55:52.719Z,82.60
2019-05-13T05:58:22.858Z,83.80
2019-05-13T06:00:54.691Z,83.00
2019-05-13T06:03:25.724Z,81.60
2019-05-13T06:05:53.124Z,77.90
2019-05-13T06:08:22.175Z,79.30
2019-05-13T06:10:53.381Z,79.00
2019-05-13T06:13:21.381Z,80.70
2019-05-13T06:15:48.574Z,79.00
2019-05-13T06:18:15.892Z,75.30
2019-05-13T06:20:43.193Z,74.30
2019-05-13T06:23:11.507Z,73.90
2019-05-13T06:25:39.129Z,74.30
2019-05-13T06:28:06.457Z,75.90
2019-05-13T06:30:33.773Z,75.80
2019-05-13T06:33:01.631Z,74.20
2019-05-13T06:35:29.213Z,74.40
2019-05-13T06:37:56.745Z,71.40
2019-05-13T06:40:24.294Z,72.90
2019-05-13T06:42:52.266Z,68.90
2019-05-13T06:45:21.642Z,70.80
2019-05-13T06:47:51.847Z,68.10
2019-05-13T06:50:18.462Z,65.30
2019-05-13T06:52:45.837Z,65.20
2019-05-13T06:55:13.404Z,63.80
2019-05-13T06:57:42.284Z,63.10
2019-05-13T07:00:12.196Z,61.60
2019-05-13T07:02:39.213Z,64.70
2019-05-13T07:05:06.678Z,60.20
2019-05-13T07:07:34.030Z,59.80
2019-05-13T07:10:02.452Z,59.10
2019-05-13T07:12:31.234Z,58.20
2019-05-13T07:14:58.828Z,60.30
2019-05-13T07:17:26.160Z,58.30
2019-05-13T07:19:53.512Z,57.70
2019-05-13T07:22:22.967Z,56.80
2019-05-13T07:24:51.970Z,59.20
2019-05-13T07:27:19.436Z,60.70
2019-05-13T07:29:46.788Z,58.60
2019-05-13T07:32:14.088Z,59.30
2019-05-13T07:34:43.802Z,58.90
2019-05-13T07:37:11.424Z,58.60
2019-05-13T07:39:41.599Z,57.60
2019-05-13T07:42:08.377Z,58.70
2019-05-13T07:44:35.685Z,57.70
2019-05-13T07:47:03.792Z,58.40
2019-05-13T07:49:31.703Z,59.10
2019-05-13T07:52:01.564Z,54.20
2019-05-13T07:54:28.505Z,54.40
2019-05-13T07:56:56.046Z,55.10
2019-05-13T07:59:23.377Z,52.20
2019-05-13T08:01:52.214Z,53.50
2019-05-13T08:04:23.697Z,53.00
2019-05-13T08:06:48.986Z,52.70
2019-05-13T08:09:16.295Z,53.00
2019-05-13T08:11:59.953Z,50.70
2019-05-13T08:14:12.814Z,51.80
2019-05-13T08:16:42.561Z,52.70
2019-05-13T08:19:09.281Z,50.80
2019-05-13T08:21:36.599Z,49.40
2019-05-13T08:24:03.945Z,50.10
2019-05-13T08:26:32.244Z,48.90
2019-05-13T08:29:03.189Z,49.40
2019-05-13T08:31:29.002Z,50.60
2019-05-13T08:33:56.260Z,50.30
2019-05-13T08:36:23.696Z,50.30
2019-05-13T08:38:51.905Z,51.10
2019-05-13T08:43:48.677Z,47.00
2019-05-13T08:46:16.012Z,47.70
2019-05-13T08:48:43.321Z,47.60
2019-05-13T08:51:11.662Z,48.00
2019-05-13T08:53:39.164Z,45.70
2019-05-13T08:56:06.529Z,48.40
2019-05-13T08:58:33.868Z,47.80
2019-05-13T09:01:02.251Z,47.70
2019-05-13T09:03:32.443Z,45.70
2019-05-13T09:05:59.154Z,45.60
2019-05-13T09:08:26.981Z,46.90
2019-05-13T09:10:56.722Z,45.50
2019-05-13T09:13:23.724Z,47.80
2019-05-13T09:15:51.822Z,46.50
2019-05-13T09:18:21.827Z,46.50
2019-05-13T09:20:48.544Z,45.20
2019-05-13T09:23:15.889Z,46.40
2019-05-13T09:25:46.506Z,47.70
2019-05-13T09:28:13.835Z,46.20
2019-05-13T09:30:42.438Z,46.10
2019-05-13T09:33:11.490Z,46.70
2019-05-13T09:35:39.313Z,46.90
2019-05-13T09:38:06.777Z,46.10
2019-05-13T09:40:34.116Z,43.30
2019-05-13T09:43:02.548Z,43.30
2019-05-13T09:45:32.124Z,44.90
2019-05-13T09:48:01.458Z,46.40
2019-05-13T09:50:35.246Z,45.80
2019-05-13T09:52:57.792Z,44.70
2019-05-13T09:55:29.217Z,44.70
2019-05-13T09:57:54.569Z,46.80
2019-05-13T10:00:21.978Z,37.70
2019-05-13T10:02:51.402Z,35.30
2019-05-13T10:05:18.601Z,42.50
2019-05-13T10:07:46.163Z,42.70
2019-05-13T10:10:13.887Z,41.50
2019-05-13T10:12:42.487Z,44.30
2019-05-13T10:15:12.729Z,40.90
2019-05-13T10:17:42.470Z,34.90
2019-05-13T10:20:11.952Z,33.20
2019-05-13T10:22:38.665Z,32.00
2019-05-13T10:25:08.460Z,32.90
2019-05-13T10:27:36.043Z,35.30
2019-05-13T10:30:03.863Z,34.20
2019-05-13T10:32:32.392Z,33.50
2019-05-13T10:35:03.244Z,32.70
2019-05-13T10:37:30.112Z,34.30
2019-05-13T10:39:57.469Z,35.30
2019-05-13T10:42:24.756Z,36.30
2019-05-13T10:44:52.631Z,33.60
2019-05-13T10:47:22.806Z,36.30
2019-05-13T10:49:52.151Z,34.20
2019-05-13T10:52:18.522Z,34.90
2019-05-13T10:54:45.881Z,31.60
2019-05-13T10:57:13.872Z,31.80
2019-05-13T10:59:41.567Z,30.80
2019-05-13T11:02:09.293Z,32.60
2019-05-13T11:04:36.613Z,32.40
2019-05-13T11:07:03.969Z,30.90
2019-05-13T11:09:32.555Z,30.30
2019-05-13T11:12:02.051Z,31.80
2019-05-13T11:14:29.405Z,33.00
2019-05-13T11:16:56.990Z,32.50
2019-05-13T11:19:24.543Z,33.10
2019-05-13T11:21:51.907Z,32.30
2019-05-13T11:24:19.337Z,30.10
2019-05-13T11:26:46.681Z,30.50
2019-05-13T11:29:14.085Z,34.20
2019-05-13T11:31:42.774Z,36.00
2019-05-13T11:34:10.426Z,31.90
2019-05-13T11:36:37.761Z,30.60
2019-05-13T11:39:06.570Z,31.50
2019-05-13T11:41:33.961Z,30.90
2019-05-13T11:44:12.691Z,31.30
2019-05-13T11:46:33.226Z,31.00
2019-05-13T11:49:02.260Z,30.90
2019-05-13T11:51:31.427Z,32.20
2019-05-13T11:53:58.340Z,32.30
2019-05-13T11:56:25.633Z,32.20
2019-05-13T11:58:53.595Z,31.80
2019-05-13T12:01:22.960Z,29.60
2019-05-13T12:03:53.204Z,27.20
2019-05-13T12:06:22.927Z,29.60
2019-05-13T12:08:52.134Z,32.90
2019-05-13T12:11:18.320Z,30.80
2019-05-13T12:13:45.655Z,33.70
2019-05-13T12:16:13.167Z,30.50
2019-05-13T12:18:43.730Z,30.60
2019-05-13T12:21:11.819Z,29.50
2019-05-13T12:23:42.319Z,30.70
2019-05-13T12:26:08.506Z,30.60
2019-05-13T12:28:35.830Z,28.00
2019-05-13T12:31:03.591Z,28.10
2019-05-13T12:33:32.685Z,27.30
2019-05-13T12:36:02.022Z,28.20
2019-05-13T12:38:32.540Z,30.70
2019-05-13T12:40:59.165Z,33.10
2019-05-13T12:43:26.745Z,28.80
2019-05-13T12:45:54.091Z,30.00
2019-05-13T12:48:22.992Z,27.50
2019-05-13T12:50:53.929Z,26.90
2019-05-13T12:53:22.027Z,27.00
2019-05-13T12:55:55.739Z,28.40
2019-05-13T12:58:18.406Z,28.50
2019-05-13T13:00:45.748Z,27.80
2019-05-13T13:03:13.529Z,27.10
2019-05-13T13:05:43.108Z,26.50
2019-05-13T13:08:24.398Z,26.80
2019-05-13T13:10:42.265Z,26.10
2019-05-13T13:13:09.262Z,28.30
2019-05-13T13:15:42.218Z,27.70
2019-05-13T13:18:06.379Z,29.10
2019-05-13T13:20:41.020Z,28.50
2019-05-13T13:23:04.310Z,28.60
2019-05-13T13:25:33.896Z,30.40
2019-05-13T13:30:35.015Z,26.70
2019-05-13T13:33:02.059Z,26.70
2019-05-13T13:35:28.877Z,28.80
2019-05-13T13:37:56.276Z,27.40
2019-05-13T13:40:29.163Z,27.40
2019-05-13T13:42:53.201Z,25.40
2019-05-13T13:45:22.865Z,26.60
2019-05-13T13:47:59.260Z,26.50
2019-05-13T13:50:23.637Z,26.90
2019-05-13T13:52:48.599Z,26.30
2019-05-13T13:55:16.698Z,26.70
2019-05-13T13:57:45.039Z,26.40
2019-05-13T14:00:34.601Z,29.50
2019-05-13T14:02:43.072Z,26.80
2019-05-13T14:05:12.535Z,27.40
2019-05-13T14:07:42.428Z,26.70
2019-05-13T14:10:11.650Z,28.00
2019-05-13T14:12:38.793Z,27.30
2019-05-13T14:15:06.194Z,28.20
2019-05-13T14:17:33.556Z,27.20
2019-05-13T14:20:00.921Z,26.10
2019-05-13T14:22:28.550Z,26.00
2019-05-13T14:24:55.901Z,28.70
2019-05-13T14:27:23.398Z,28.40
2019-05-13T14:29:52.664Z,26.40
2019-05-13T14:32:22.297Z,27.50
2019-05-13T14:34:49.301Z,26.60
2019-05-13T14:37:16.610Z,26.40
2019-05-13T14:39:44.458Z,26.20
2019-05-13T14:42:11.939Z,27.20
2019-05-13T14:44:39.435Z,27.40
2019-05-13T14:47:07.071Z,26.70
2019-05-13T14:49:34.399Z,27.50
2019-05-13T14:52:01.713Z,26.40
2019-05-13T14:54:29.282Z,27.70
2019-05-13T14:56:58.309Z,26.10
2019-05-13T14:59:25.647Z,26.10
2019-05-13T15:01:52.938Z,26.80
2019-05-13T15:04:22.293Z,27.70
2019-05-13T15:06:49.693Z,26.90
2019-05-13T15:09:17.037Z,28.50
2019-05-13T15:11:44.685Z,28.00
2019-05-13T15:14:12.051Z,28.70
2019-05-13T15:16:42.196Z,29.10
2019-05-13T15:19:08.708Z,30.00
2019-05-13T15:21:36.065Z,29.50
2019-05-13T15:24:03.556Z,29.80
2019-05-13T15:26:31.399Z,29.00
2019-05-13T15:29:02.618Z,28.90
2019-05-13T15:31:28.322Z,28.00
2019-05-13T15:33:55.656Z,27.90
2019-05-13T15:36:22.975Z,28.20
2019-05-13T15:38:51.972Z,28.10
2019-05-13T15:41:19.656Z,28.50
2019-05-13T15:43:46.969Z,28.10
2019-05-13T15:46:15.249Z,28.10
2019-05-13T15:48:42.560Z,26.40
2019-05-13T15:51:11.246Z,27.60
2019-05-13T15:53:38.833Z,25.70
2019-05-13T15:56:06.210Z,27.10
2019-05-13T15:58:39.600Z,26.90
2019-05-13T16:01:03.161Z,29.00
2019-05-13T16:03:30.729Z,27.40
2019-05-13T16:05:58.036Z,28.10
2019-05-13T16:08:25.401Z,28.50
2019-05-13T16:13:22.236Z,26.10
2019-05-13T16:15:49.750Z,26.70
2019-05-13T16:18:17.374Z,26.80
2019-05-13T16:20:45.449Z,26.90
2019-05-13T16:23:12.909Z,27.40
2019-05-13T16:25:41.675Z,26.60
2019-05-13T16:28:09.376Z,26.10
2019-05-13T16:30:36.776Z,26.80
2019-05-13T16:33:04.092Z,26.40
2019-05-13T16:35:32.003Z,28.00
2019-05-13T16:40:33.341Z,27.40
2019-05-13T16:42:58.119Z,27.60
2019-05-13T16:45:25.885Z,28.30
2019-05-13T16:47:58.413Z,28.00
2019-05-13T16:50:22.570Z,28.10
2019-05-13T16:52:51.121Z,27.90
2019-05-13T16:55:18.560Z,27.80
2019-05-13T16:57:45.973Z,25.90
2019-05-13T17:00:13.698Z,25.90
2019-05-13T17:02:42.068Z,27.20
2019-05-13T17:05:12.099Z,27.40
2019-05-13T17:07:39.425Z,26.20
2019-05-13T17:10:07.652Z,27.50
2019-05-13T17:12:35.060Z,28.70
2019-05-13T17:15:02.476Z,26.70
2019-05-13T17:17:31.759Z,26.60
2019-05-13T17:19:59.197Z,26.20
2019-05-13T17:22:28.734Z,26.40
2019-05-13T17:24:56.111Z,27.10
2019-05-13T17:27:23.489Z,26.30
2019-05-13T17:29:51.604Z,24.40
2019-05-13T17:32:22.079Z,26.40
2019-05-13T17:34:51.577Z,26.90
2019-05-13T17:37:18.846Z,27.20
2019-05-13T17:39:46.162Z,26.90
2019-05-13T17:42:13.509Z,27.90
2019-05-13T17:44:45.967Z,26.50
2019-05-13T17:47:11.692Z,27.80
2019-05-13T17:49:41.718Z,26.80
2019-05-13T17:52:08.525Z,27.90
2019-05-13T17:57:03.351Z,28.20
2019-05-13T17:59:31.486Z,28.90
2019-05-13T18:01:59.080Z,29.50
2019-05-13T18:04:26.668Z,29.80
2019-05-13T18:06:53.995Z,29.60
2019-05-13T18:09:22.328Z,29.10
2019-05-13T18:11:49.789Z,28.40
2019-05-13T18:14:17.138Z,28.70
2019-05-13T18:16:44.481Z,29.80
2019-05-13T18:19:12.150Z,29.50
2019-05-13T18:21:42.191Z,29.00
2019-05-13T18:24:09.072Z,29.20
2019-05-13T18:26:36.747Z,29.60
2019-05-13T18:29:04.202Z,29.50
2019-05-13T18:31:31.547Z,29.40
2019-05-13T18:33:58.870Z,29.70
2019-05-13T18:36:26.200Z,30.40
2019-05-13T18:38:53.585Z,30.80
2019-05-13T18:41:21.441Z,30.30
2019-05-13T18:43:52.018Z,31.30
2019-05-13T18:46:18.162Z,31.10
2019-05-13T18:48:58.174Z,31.50
2019-05-13T18:51:15.032Z,33.80
2019-05-13T18:53:42.366Z,34.60
2019-05-13T18:56:12.262Z,33.90
2019-05-13T18:58:39.158Z,34.20
2019-05-13T19:01:06.449Z,35.20
2019-05-13T19:03:33.842Z,34.20
2019-05-13T19:06:01.141Z,34.40
2019-05-13T19:10:55.959Z,34.90
2019-05-13T19:13:23.311Z,36.10
2019-05-13T19:15:51.682Z,36.30
2019-05-13T19:18:21.302Z,36.50
2019-05-13T19:20:48.480Z,36.10
2019-05-13T19:23:15.798Z,37.10
2019-05-13T19:25:43.114Z,37.30
2019-05-13T19:28:11.826Z,37.50
2019-05-13T19:30:41.120Z,38.20
2019-05-13T19:33:08.669Z,38.20
2019-05-13T19:35:36.083Z,38.20
2019-05-13T19:38:03.503Z,39.40
2019-05-13T19:40:31.276Z,38.40
2019-05-13T19:42:58.762Z,39.60
2019-05-13T19:45:26.139Z,39.50
2019-05-13T19:47:53.565Z,39.10
2019-05-13T19:50:22.348Z,39.20
2019-05-13T19:52:51.820Z,38.90
2019-05-13T19:55:19.130Z,39.30
2019-05-13T19:57:46.516Z,39.60
2019-05-13T20:00:14.456Z,39.30
2019-05-13T20:02:42.263Z,39.70
2019-05-13T20:05:09.792Z,41.40
2019-05-13T20:07:37.125Z,40.10
2019-05-13T20:10:04.780Z,40.50
2019-05-13T20:12:32.111Z,40.30
2019-05-13T20:15:01.420Z,40.50
2019-05-13T20:17:28.760Z,40.90
2019-05-13T20:19:56.137Z,40.90
2019-05-13T20:22:23.487Z,44.70
2019-05-13T20:24:51.393Z,42.20
2019-05-13T20:27:20.933Z,42.60
2019-05-13T20:29:48.104Z,42.80
2019-05-13T20:32:15.420Z,42.80
2019-05-13T20:34:42.788Z,42.60
2019-05-13T20:37:12.250Z,42.50
2019-05-13T20:39:39.418Z,43.00
2019-05-13T20:42:06.761Z,43.60
2019-05-13T20:44:34.092Z,44.00
2019-05-13T20:47:01.801Z,44.20
2019-05-13T20:49:31.172Z,43.60
2019-05-13T20:51:58.532Z,45.20
2019-05-13T20:54:25.870Z,46.10
2019-05-13T20:56:53.449Z,46.30
2019-05-13T20:59:21.589Z,45.40
2019-05-13T21:01:51.005Z,46.30
2019-05-13T21:04:18.541Z,47.10
2019-05-13T21:06:45.900Z,49.60
2019-05-13T21:09:16.820Z,48.20
2019-05-13T21:11:42.520Z,46.80
2019-05-13T21:14:09.829Z,46.70
2019-05-13T21:16:37.205Z,48.10
2019-05-13T21:19:04.770Z,48.30
2019-05-13T21:21:32.100Z,49.80
2019-05-13T21:24:01.415Z,50.20
2019-05-13T21:26:28.660Z,48.90
2019-05-13T21:28:55.989Z,51.20
2019-05-13T21:31:23.488Z,51.30
2019-05-13T21:33:51.428Z,49.60
2019-05-13T21:36:21.411Z,49.60
2019-05-13T21:38:48.347Z,51.70
2019-05-13T21:41:15.653Z,51.60
2019-05-13T21:43:42.977Z,51.40
2019-05-13T21:46:12.060Z,52.00
2019-05-13T21:48:41.507Z,51.30
2019-05-13T21:51:08.725Z,51.70
2019-05-13T21:53:36.082Z,51.70
2019-05-13T21:56:03.470Z,52.70
2019-05-13T21:58:31.295Z,52.20
2019-05-13T22:01:01.372Z,53.20
2019-05-13T22:03:28.463Z,54.00
2019-05-13T22:05:55.809Z,54.10
2019-05-13T22:08:23.218Z,53.70
2019-05-13T22:10:52.503Z,55.20
2019-05-13T22:13:19.933Z,56.90
2019-05-13T22:15:47.450Z,57.30
2019-05-13T22:18:14.900Z,58.80
2019-05-13T22:20:49.827Z,59.40
2019-05-13T22:23:11.940Z,58.70
2019-05-13T22:25:43.373Z,58.70
2019-05-13T22:28:08.893Z,61.30
2019-05-13T22:30:36.225Z,61.80
2019-05-13T22:33:03.585Z,61.00
2019-05-13T22:35:32.310Z,61.10
2019-05-13T22:38:01.733Z,62.10
2019-05-13T22:40:29.019Z,65.90
2019-05-13T22:42:57.062Z,66.60
2019-05-13T22:45:24.593Z,61.50
2019-05-13T22:47:52.134Z,63.60
2019-05-13T22:50:21.432Z,62.90
2019-05-13T22:52:48.949Z,63.10
2019-05-13T22:55:16.242Z,62.80
2019-05-13T22:57:43.725Z,63.60
2019-05-13T23:00:11.949Z,64.60
2019-05-13T23:02:41.856Z,66.30
2019-05-13T23:05:08.628Z,66.80
2019-05-13T23:07:35.875Z,66.80
2019-05-13T23:10:03.751Z,64.60
2019-05-13T23:12:31.502Z,65.60
2019-05-13T23:15:01.195Z,65.70
2019-05-13T23:17:28.044Z,66.00
2019-05-13T23:19:55.412Z,66.90
2019-05-13T23:22:22.885Z,67.00
2019-05-13T23:24:50.246Z,68.80
2019-05-13T23:27:17.542Z,68.40
2019-05-13T23:29:45.079Z,67.90
2019-05-13T23:32:12.484Z,67.20
2019-05-13T23:34:42.065Z,66.50
2019-05-13T23:37:11.223Z,69.00
2019-05-13T23:39:38.209Z,67.10
2019-05-13T23:42:05.532Z,68.40
2019-05-13T23:44:32.869Z,66.20
2019-05-13T23:47:00.208Z,67.10
2019-05-13T23:49:27.612Z,65.90
2019-05-13T23:51:54.924Z,67.50
2019-05-13T23:54:22.252Z,67.90
2019-05-13T23:56:49.580Z,66.20
2019-05-13T23:59:16.888Z,68.70
